sensor_id;sensor_type;location;lat;lon;timestamp;temperature;humidity
15879;DHT22;61999;51.514;14.614;2023-07-29T00:01:24;13.10;60.40
15879;DHT22;61999;51.514;14.614;2023-07-29T00:03:52;13.20;60.70
15879;DHT22;61999;51.514;14.614;2023-07-29T00:06:20;13.10;60.60
15879;DHT22;61999;51.514;14.614;2023-07-29T00:08:48;13.10;60.70
15879;DHT22;61999;51.514;14.614;2023-07-29T00:11:16;13.10;60.80
15879;DHT22;61999;51.514;14.614;2023-07-29T00:13:44;13.00;60.80
15879;DHT22;61999;51.514;14.614;2023-07-29T00:16:13;13.00;60.90
15879;DHT22;61999;51.514;14.614;2023-07-29T00:18:45;13.00;61.00
15879;DHT22;61999;51.514;14.614;2023-07-29T00:21:12;13.00;61.20
15879;DHT22;61999;51.514;14.614;2023-07-29T00:23:40;12.90;61.20
15879;DHT22;61999;51.514;14.614;2023-07-29T00:26:08;13.00;61.20
15879;DHT22;61999;51.514;14.614;2023-07-29T00:28:36;12.90;61.20
15879;DHT22;61999;51.514;14.614;2023-07-29T00:31:04;12.90;61.20
15879;DHT22;61999;51.514;14.614;2023-07-29T00:33:32;12.90;61.30
15879;DHT22;61999;51.514;14.614;2023-07-29T00:36:01;12.90;61.30
15879;DHT22;61999;51.514;14.614;2023-07-29T00:38:29;12.80;61.30
15879;DHT22;61999;51.514;14.614;2023-07-29T00:40:57;12.80;61.30
15879;DHT22;61999;51.514;14.614;2023-07-29T00:43:26;12.80;61.40
15879;DHT22;61999;51.514;14.614;2023-07-29T00:45:53;12.80;61.40
15879;DHT22;61999;51.514;14.614;2023-07-29T00:48:24;12.70;61.40
15879;DHT22;61999;51.514;14.614;2023-07-29T00:50:55;12.70;63.60
15879;DHT22;61999;51.514;14.614;2023-07-29T00:53:24;12.60;62.50
15879;DHT22;61999;51.514;14.614;2023-07-29T00:55:53;12.60;62.20
15879;DHT22;61999;51.514;14.614;2023-07-29T00:58:21;12.60;62.10
15879;DHT22;61999;51.514;14.614;2023-07-29T01:00:50;12.50;62.10
15879;DHT22;61999;51.514;14.614;2023-07-29T01:03:18;12.50;62.10
15879;DHT22;61999;51.514;14.614;2023-07-29T01:05:56;12.50;62.10
15879;DHT22;61999;51.514;14.614;2023-07-29T01:08:42;12.50;62.20
15879;DHT22;61999;51.514;14.614;2023-07-29T01:11:24;12.40;62.20
15879;DHT22;61999;51.514;14.614;2023-07-29T01:14:05;12.40;62.20
15879;DHT22;61999;51.514;14.614;2023-07-29T01:16:43;12.40;62.20
15879;DHT22;61999;51.514;14.614;2023-07-29T01:22:11;12.40;62.30
15879;DHT22;61999;51.514;14.614;2023-07-29T01:24:42;12.40;62.40
15879;DHT22;61999;51.514;14.614;2023-07-29T01:27:10;12.30;62.40
15879;DHT22;61999;51.514;14.614;2023-07-29T01:29:38;12.30;62.50
15879;DHT22;61999;51.514;14.614;2023-07-29T01:32:10;12.30;62.50
15879;DHT22;61999;51.514;14.614;2023-07-29T01:34:46;12.30;62.60
15879;DHT22;61999;51.514;14.614;2023-07-29T01:37:22;12.20;63.40
15879;DHT22;61999;51.514;14.614;2023-07-29T01:39:57;12.20;62.70
15879;DHT22;61999;51.514;14.614;2023-07-29T01:42:27;12.20;62.70
15879;DHT22;61999;51.514;14.614;2023-07-29T01:44:56;12.20;62.70
15879;DHT22;61999;51.514;14.614;2023-07-29T01:47:24;12.20;62.80
15879;DHT22;61999;51.514;14.614;2023-07-29T01:49:52;12.10;62.80
15879;DHT22;61999;51.514;14.614;2023-07-29T01:52:20;12.10;62.90
15879;DHT22;61999;51.514;14.614;2023-07-29T01:54:48;12.10;62.90
15879;DHT22;61999;51.514;14.614;2023-07-29T01:57:17;12.10;63.00
15879;DHT22;61999;51.514;14.614;2023-07-29T01:59:45;12.10;63.00
15879;DHT22;61999;51.514;14.614;2023-07-29T02:02:13;12.10;63.10
15879;DHT22;61999;51.514;14.614;2023-07-29T02:04:41;12.10;63.10
15879;DHT22;61999;51.514;14.614;2023-07-29T02:07:09;12.00;63.10
15879;DHT22;61999;51.514;14.614;2023-07-29T02:09:36;12.00;63.10
15879;DHT22;61999;51.514;14.614;2023-07-29T02:12:05;12.00;63.20
15879;DHT22;61999;51.514;14.614;2023-07-29T02:14:35;11.90;63.20
15879;DHT22;61999;51.514;14.614;2023-07-29T02:17:03;11.90;63.30
15879;DHT22;61999;51.514;14.614;2023-07-29T02:19:31;11.90;63.30
15879;DHT22;61999;51.514;14.614;2023-07-29T02:21:59;11.90;63.30
15879;DHT22;61999;51.514;14.614;2023-07-29T02:24:27;11.90;63.30
15879;DHT22;61999;51.514;14.614;2023-07-29T02:26:55;11.80;63.30
15879;DHT22;61999;51.514;14.614;2023-07-29T02:29:23;11.80;63.50
15879;DHT22;61999;51.514;14.614;2023-07-29T02:31:52;11.80;63.80
15879;DHT22;61999;51.514;14.614;2023-07-29T02:34:20;11.80;64.70
15879;DHT22;61999;51.514;14.614;2023-07-29T02:36:48;11.80;64.80
15879;DHT22;61999;51.514;14.614;2023-07-29T02:39:16;11.80;64.80
15879;DHT22;61999;51.514;14.614;2023-07-29T02:41:44;11.90;65.30
15879;DHT22;61999;51.514;14.614;2023-07-29T02:44:12;12.00;69.30
15879;DHT22;61999;51.514;14.614;2023-07-29T02:46:40;12.00;66.90
15879;DHT22;61999;51.514;14.614;2023-07-29T02:49:09;12.30;69.40
15879;DHT22;61999;51.514;14.614;2023-07-29T02:51:37;12.70;70.40
15879;DHT22;61999;51.514;14.614;2023-07-29T02:54:05;12.90;70.00
15879;DHT22;61999;51.514;14.614;2023-07-29T02:56:33;12.90;70.00
15879;DHT22;61999;51.514;14.614;2023-07-29T02:59:00;13.00;70.00
15879;DHT22;61999;51.514;14.614;2023-07-29T03:01:28;12.90;70.20
15879;DHT22;61999;51.514;14.614;2023-07-29T03:03:56;13.00;70.30
15879;DHT22;61999;51.514;14.614;2023-07-29T03:06:25;13.00;70.00
15879;DHT22;61999;51.514;14.614;2023-07-29T03:08:53;12.90;69.80
15879;DHT22;61999;51.514;14.614;2023-07-29T03:11:21;12.70;69.90
15879;DHT22;61999;51.514;14.614;2023-07-29T03:13:49;12.80;70.70
15879;DHT22;61999;51.514;14.614;2023-07-29T03:16:17;12.80;70.30
15879;DHT22;61999;51.514;14.614;2023-07-29T03:18:47;13.10;70.70
15879;DHT22;61999;51.514;14.614;2023-07-29T03:21:16;13.10;70.50
15879;DHT22;61999;51.514;14.614;2023-07-29T03:23:45;13.20;70.40
15879;DHT22;61999;51.514;14.614;2023-07-29T03:26:13;13.20;70.60
15879;DHT22;61999;51.514;14.614;2023-07-29T03:28:42;13.20;70.50
15879;DHT22;61999;51.514;14.614;2023-07-29T03:31:11;13.30;70.90
15879;DHT22;61999;51.514;14.614;2023-07-29T03:33:39;13.30;70.30
15879;DHT22;61999;51.514;14.614;2023-07-29T03:36:07;13.30;70.50
15879;DHT22;61999;51.514;14.614;2023-07-29T03:38:35;13.10;70.70
15879;DHT22;61999;51.514;14.614;2023-07-29T03:41:08;13.00;70.70
15879;DHT22;61999;51.514;14.614;2023-07-29T03:43:37;13.00;71.20
15879;DHT22;61999;51.514;14.614;2023-07-29T03:46:05;13.10;71.00
15879;DHT22;61999;51.514;14.614;2023-07-29T03:48:34;13.20;71.10
15879;DHT22;61999;51.514;14.614;2023-07-29T03:51:01;13.00;70.90
15879;DHT22;61999;51.514;14.614;2023-07-29T03:53:30;13.00;71.20
15879;DHT22;61999;51.514;14.614;2023-07-29T03:55:58;13.00;71.10
15879;DHT22;61999;51.514;14.614;2023-07-29T03:58:27;13.00;70.70
15879;DHT22;61999;51.514;14.614;2023-07-29T04:00:55;12.80;70.40
15879;DHT22;61999;51.514;14.614;2023-07-29T04:03:22;12.70;70.90
15879;DHT22;61999;51.514;14.614;2023-07-29T04:05:50;12.70;71.70
15879;DHT22;61999;51.514;14.614;2023-07-29T04:08:18;12.80;71.80
15879;DHT22;61999;51.514;14.614;2023-07-29T04:10:46;12.90;72.00
15879;DHT22;61999;51.514;14.614;2023-07-29T04:13:15;12.90;71.60
15879;DHT22;61999;51.514;14.614;2023-07-29T04:15:45;12.90;71.50
15879;DHT22;61999;51.514;14.614;2023-07-29T04:18:13;12.90;71.80
15879;DHT22;61999;51.514;14.614;2023-07-29T04:20:40;12.90;71.30
15879;DHT22;61999;51.514;14.614;2023-07-29T04:23:08;12.80;71.40
15879;DHT22;61999;51.514;14.614;2023-07-29T04:25:36;12.80;71.40
15879;DHT22;61999;51.514;14.614;2023-07-29T04:28:04;12.70;71.20
15879;DHT22;61999;51.514;14.614;2023-07-29T04:30:32;12.70;71.40
15879;DHT22;61999;51.514;14.614;2023-07-29T04:33:02;12.70;71.40
15879;DHT22;61999;51.514;14.614;2023-07-29T04:35:30;12.70;71.80
15879;DHT22;61999;51.514;14.614;2023-07-29T04:37:58;12.70;71.60
15879;DHT22;61999;51.514;14.614;2023-07-29T04:40:26;12.90;72.20
15879;DHT22;61999;51.514;14.614;2023-07-29T04:42:54;13.00;72.10
15879;DHT22;61999;51.514;14.614;2023-07-29T04:45:22;13.10;71.90
15879;DHT22;61999;51.514;14.614;2023-07-29T04:47:51;13.20;71.90
15879;DHT22;61999;51.514;14.614;2023-07-29T04:50:20;13.30;71.60
15879;DHT22;61999;51.514;14.614;2023-07-29T04:52:48;13.30;71.50
15879;DHT22;61999;51.514;14.614;2023-07-29T04:55:16;13.40;71.60
15879;DHT22;61999;51.514;14.614;2023-07-29T04:57:43;13.60;71.40
15879;DHT22;61999;51.514;14.614;2023-07-29T05:00:11;13.50;71.40
15879;DHT22;61999;51.514;14.614;2023-07-29T05:02:40;13.60;71.70
15879;DHT22;61999;51.514;14.614;2023-07-29T05:05:08;13.70;71.60
15879;DHT22;61999;51.514;14.614;2023-07-29T05:07:37;13.70;71.60
15879;DHT22;61999;51.514;14.614;2023-07-29T05:10:06;14.00;70.70
15879;DHT22;61999;51.514;14.614;2023-07-29T05:12:35;14.30;69.40
15879;DHT22;61999;51.514;14.614;2023-07-29T05:15:04;14.50;68.80
15879;DHT22;61999;51.514;14.614;2023-07-29T05:17:33;14.50;68.70
15879;DHT22;61999;51.514;14.614;2023-07-29T05:20:01;14.70;68.00
15879;DHT22;61999;51.514;14.614;2023-07-29T05:22:29;14.80;67.70
15879;DHT22;61999;51.514;14.614;2023-07-29T05:24:58;14.70;68.10
15879;DHT22;61999;51.514;14.614;2023-07-29T05:27:26;14.80;67.70
15879;DHT22;61999;51.514;14.614;2023-07-29T05:29:54;14.70;68.30
15879;DHT22;61999;51.514;14.614;2023-07-29T05:32:22;14.70;67.90
15879;DHT22;61999;51.514;14.614;2023-07-29T05:34:50;14.50;68.30
15879;DHT22;61999;51.514;14.614;2023-07-29T05:37:18;14.50;68.70
15879;DHT22;61999;51.514;14.614;2023-07-29T05:39:46;14.70;68.30
15879;DHT22;61999;51.514;14.614;2023-07-29T05:42:15;14.60;68.70
15879;DHT22;61999;51.514;14.614;2023-07-29T05:44:43;14.70;68.30
15879;DHT22;61999;51.514;14.614;2023-07-29T05:47:11;14.70;68.70
15879;DHT22;61999;51.514;14.614;2023-07-29T05:49:39;14.90;68.10
15879;DHT22;61999;51.514;14.614;2023-07-29T05:52:07;15.10;67.20
15879;DHT22;61999;51.514;14.614;2023-07-29T05:54:35;15.30;66.40
15879;DHT22;61999;51.514;14.614;2023-07-29T05:57:03;15.40;66.40
15879;DHT22;61999;51.514;14.614;2023-07-29T05:59:33;15.30;66.60
15879;DHT22;61999;51.514;14.614;2023-07-29T06:02:01;15.30;66.70
15879;DHT22;61999;51.514;14.614;2023-07-29T06:04:30;15.60;66.60
15879;DHT22;61999;51.514;14.614;2023-07-29T06:06:58;15.70;65.30
15879;DHT22;61999;51.514;14.614;2023-07-29T06:09:26;15.60;65.40
15879;DHT22;61999;51.514;14.614;2023-07-29T06:11:54;15.60;65.30
15879;DHT22;61999;51.514;14.614;2023-07-29T06:14:22;15.50;65.70
15879;DHT22;61999;51.514;14.614;2023-07-29T06:16:51;15.50;66.20
15879;DHT22;61999;51.514;14.614;2023-07-29T06:19:20;15.70;65.50
15879;DHT22;61999;51.514;14.614;2023-07-29T06:21:48;15.80;66.70
15879;DHT22;61999;51.514;14.614;2023-07-29T06:24:16;16.10;64.50
15879;DHT22;61999;51.514;14.614;2023-07-29T06:26:44;16.30;63.70
15879;DHT22;61999;51.514;14.614;2023-07-29T06:29:12;16.10;64.20
15879;DHT22;61999;51.514;14.614;2023-07-29T06:31:40;16.20;64.10
15879;DHT22;61999;51.514;14.614;2023-07-29T06:34:09;16.30;63.50
15879;DHT22;61999;51.514;14.614;2023-07-29T06:36:37;16.30;62.90
15879;DHT22;61999;51.514;14.614;2023-07-29T06:39:05;16.20;63.50
15879;DHT22;61999;51.514;14.614;2023-07-29T06:41:32;16.00;63.90
15879;DHT22;61999;51.514;14.614;2023-07-29T06:44:00;15.90;64.50
15879;DHT22;61999;51.514;14.614;2023-07-29T06:46:28;15.90;64.60
15879;DHT22;61999;51.514;14.614;2023-07-29T06:48:56;16.00;64.10
15879;DHT22;61999;51.514;14.614;2023-07-29T06:51:25;16.00;64.10
15879;DHT22;61999;51.514;14.614;2023-07-29T06:53:56;16.10;64.20
15879;DHT22;61999;51.514;14.614;2023-07-29T06:56:23;16.10;63.90
15879;DHT22;61999;51.514;14.614;2023-07-29T06:58:51;16.20;63.40
15879;DHT22;61999;51.514;14.614;2023-07-29T07:01:19;16.30;63.40
15879;DHT22;61999;51.514;14.614;2023-07-29T07:03:47;16.20;63.40
15879;DHT22;61999;51.514;14.614;2023-07-29T07:06:15;16.10;63.60
15879;DHT22;61999;51.514;14.614;2023-07-29T07:08:44;16.30;62.90
15879;DHT22;61999;51.514;14.614;2023-07-29T07:11:12;16.30;63.50
15879;DHT22;61999;51.514;14.614;2023-07-29T07:13:40;16.30;63.30
15879;DHT22;61999;51.514;14.614;2023-07-29T07:16:08;16.60;62.00
15879;DHT22;61999;51.514;14.614;2023-07-29T07:18:36;16.60;62.50
15879;DHT22;61999;51.514;14.614;2023-07-29T07:21:04;16.60;62.60
15879;DHT22;61999;51.514;14.614;2023-07-29T07:23:31;16.70;61.80
15879;DHT22;61999;51.514;14.614;2023-07-29T07:26:01;16.70;62.20
15879;DHT22;61999;51.514;14.614;2023-07-29T07:28:29;17.00;61.50
15879;DHT22;61999;51.514;14.614;2023-07-29T07:30:57;17.10;61.30
15879;DHT22;61999;51.514;14.614;2023-07-29T07:33:25;17.30;60.70
15879;DHT22;61999;51.514;14.614;2023-07-29T07:35:53;17.50;59.50
15879;DHT22;61999;51.514;14.614;2023-07-29T07:38:21;17.50;59.10
15879;DHT22;61999;51.514;14.614;2023-07-29T07:40:53;17.60;58.70
15879;DHT22;61999;51.514;14.614;2023-07-29T07:43:23;17.60;59.00
15879;DHT22;61999;51.514;14.614;2023-07-29T07:45:57;17.60;58.90
15879;DHT22;61999;51.514;14.614;2023-07-29T07:48:26;17.60;58.80
15879;DHT22;61999;51.514;14.614;2023-07-29T07:50:54;17.60;59.10
15879;DHT22;61999;51.514;14.614;2023-07-29T07:53:22;17.70;59.00
15879;DHT22;61999;51.514;14.614;2023-07-29T07:55:52;17.90;58.10
15879;DHT22;61999;51.514;14.614;2023-07-29T07:58:20;18.00;57.70
15879;DHT22;61999;51.514;14.614;2023-07-29T08:00:49;17.90;57.90
15879;DHT22;61999;51.514;14.614;2023-07-29T08:03:17;18.00;57.50
15879;DHT22;61999;51.514;14.614;2023-07-29T08:05:45;17.80;58.10
15879;DHT22;61999;51.514;14.614;2023-07-29T08:08:14;17.80;57.90
15879;DHT22;61999;51.514;14.614;2023-07-29T08:10:42;17.70;58.40
15879;DHT22;61999;51.514;14.614;2023-07-29T08:13:10;17.80;58.00
15879;DHT22;61999;51.514;14.614;2023-07-29T08:15:38;17.80;58.20
15879;DHT22;61999;51.514;14.614;2023-07-29T08:18:08;17.90;57.40
15879;DHT22;61999;51.514;14.614;2023-07-29T08:20:36;18.20;57.30
15879;DHT22;61999;51.514;14.614;2023-07-29T08:23:04;18.30;56.50
15879;DHT22;61999;51.514;14.614;2023-07-29T08:25:32;18.20;57.40
15879;DHT22;61999;51.514;14.614;2023-07-29T08:28:00;18.30;56.70
15879;DHT22;61999;51.514;14.614;2023-07-29T08:30:28;18.50;55.90
15879;DHT22;61999;51.514;14.614;2023-07-29T08:32:56;18.40;56.70
15879;DHT22;61999;51.514;14.614;2023-07-29T08:35:25;18.20;57.60
15879;DHT22;61999;51.514;14.614;2023-07-29T08:37:53;18.20;57.80
15879;DHT22;61999;51.514;14.614;2023-07-29T08:40:27;18.50;57.30
15879;DHT22;61999;51.514;14.614;2023-07-29T08:42:58;18.70;56.90
15879;DHT22;61999;51.514;14.614;2023-07-29T08:45:34;19.00;55.60
15879;DHT22;61999;51.514;14.614;2023-07-29T08:48:07;19.30;54.30
15879;DHT22;61999;51.514;14.614;2023-07-29T08:50:37;19.20;55.00
15879;DHT22;61999;51.514;14.614;2023-07-29T08:53:06;19.30;55.00
15879;DHT22;61999;51.514;14.614;2023-07-29T08:55:34;19.20;56.30
15879;DHT22;61999;51.514;14.614;2023-07-29T08:58:02;19.40;55.70
15879;DHT22;61999;51.514;14.614;2023-07-29T09:00:31;19.90;53.30
15879;DHT22;61999;51.514;14.614;2023-07-29T09:03:00;20.10;52.30
15879;DHT22;61999;51.514;14.614;2023-07-29T09:05:33;20.10;53.40
15879;DHT22;61999;51.514;14.614;2023-07-29T09:08:04;20.20;53.60
15879;DHT22;61999;51.514;14.614;2023-07-29T09:10:35;20.20;54.30
15879;DHT22;61999;51.514;14.614;2023-07-29T09:13:04;20.60;52.50
15879;DHT22;61999;51.514;14.614;2023-07-29T09:15:34;21.00;52.60
15879;DHT22;61999;51.514;14.614;2023-07-29T09:18:09;21.00;53.20
15879;DHT22;61999;51.514;14.614;2023-07-29T09:20:38;21.10;51.40
15879;DHT22;61999;51.514;14.614;2023-07-29T09:23:09;21.30;50.90
15879;DHT22;61999;51.514;14.614;2023-07-29T09:25:38;21.50;50.00
15879;DHT22;61999;51.514;14.614;2023-07-29T09:28:08;21.50;50.50
15879;DHT22;61999;51.514;14.614;2023-07-29T09:30:38;21.40;50.70
15879;DHT22;61999;51.514;14.614;2023-07-29T09:33:07;21.30;51.80
15879;DHT22;61999;51.514;14.614;2023-07-29T09:35:36;21.60;49.20
15879;DHT22;61999;51.514;14.614;2023-07-29T09:38:05;21.40;49.90
15879;DHT22;61999;51.514;14.614;2023-07-29T09:40:39;21.30;50.70
15879;DHT22;61999;51.514;14.614;2023-07-29T09:43:09;21.10;50.90
15879;DHT22;61999;51.514;14.614;2023-07-29T09:45:38;21.30;50.10
15879;DHT22;61999;51.514;14.614;2023-07-29T09:48:05;21.30;49.80
15879;DHT22;61999;51.514;14.614;2023-07-29T09:50:36;21.40;49.80
15879;DHT22;61999;51.514;14.614;2023-07-29T09:53:07;21.40;50.80
15879;DHT22;61999;51.514;14.614;2023-07-29T09:55:36;21.50;50.20
15879;DHT22;61999;51.514;14.614;2023-07-29T09:58:04;21.70;49.70
15879;DHT22;61999;51.514;14.614;2023-07-29T10:00:35;21.70;50.00
15879;DHT22;61999;51.514;14.614;2023-07-29T10:03:06;22.00;49.10
15879;DHT22;61999;51.514;14.614;2023-07-29T10:05:34;22.40;47.70
15879;DHT22;61999;51.514;14.614;2023-07-29T10:08:03;22.50;47.10
15879;DHT22;61999;51.514;14.614;2023-07-29T10:10:31;22.40;47.80
15879;DHT22;61999;51.514;14.614;2023-07-29T10:13:01;22.30;47.70
15879;DHT22;61999;51.514;14.614;2023-07-29T10:15:31;22.50;46.30
15879;DHT22;61999;51.514;14.614;2023-07-29T10:18:01;22.50;46.90
15879;DHT22;61999;51.514;14.614;2023-07-29T10:20:30;22.50;46.70
15879;DHT22;61999;51.514;14.614;2023-07-29T10:23:00;22.40;47.80
15879;DHT22;61999;51.514;14.614;2023-07-29T10:25:38;22.50;46.10
15879;DHT22;61999;51.514;14.614;2023-07-29T10:28:12;22.70;45.20
15879;DHT22;61999;51.514;14.614;2023-07-29T10:30:42;22.60;45.60
15879;DHT22;61999;51.514;14.614;2023-07-29T10:33:10;22.60;45.00
15879;DHT22;61999;51.514;14.614;2023-07-29T10:35:38;22.50;45.70
15879;DHT22;61999;51.514;14.614;2023-07-29T10:38:07;22.40;45.60
15879;DHT22;61999;51.514;14.614;2023-07-29T10:40:46;22.10;45.60
15879;DHT22;61999;51.514;14.614;2023-07-29T10:43:24;21.70;46.90
15879;DHT22;61999;51.514;14.614;2023-07-29T10:45:57;21.80;46.10
15879;DHT22;61999;51.514;14.614;2023-07-29T10:48:43;21.90;46.60
15879;DHT22;61999;51.514;14.614;2023-07-29T10:51:26;21.80;46.00
15879;DHT22;61999;51.514;14.614;2023-07-29T10:54:01;21.70;46.10
15879;DHT22;61999;51.514;14.614;2023-07-29T10:56:31;21.70;46.30
15879;DHT22;61999;51.514;14.614;2023-07-29T10:59:32;21.50;46.50
15879;DHT22;61999;51.514;14.614;2023-07-29T11:02:02;21.40;46.50
15879;DHT22;61999;51.514;14.614;2023-07-29T11:04:50;21.10;47.60
15879;DHT22;61999;51.514;14.614;2023-07-29T11:07:20;21.00;47.80
15879;DHT22;61999;51.514;14.614;2023-07-29T11:10:00;21.00;49.00
15879;DHT22;61999;51.514;14.614;2023-07-29T11:12:38;21.30;48.50
15879;DHT22;61999;51.514;14.614;2023-07-29T11:15:23;21.40;48.30
15879;DHT22;61999;51.514;14.614;2023-07-29T11:17:53;21.70;47.10
15879;DHT22;61999;51.514;14.614;2023-07-29T11:20:23;21.70;48.20
15879;DHT22;61999;51.514;14.614;2023-07-29T11:22:53;21.80;48.30
15879;DHT22;61999;51.514;14.614;2023-07-29T11:25:23;21.90;48.40
15879;DHT22;61999;51.514;14.614;2023-07-29T11:27:53;22.40;46.60
15879;DHT22;61999;51.514;14.614;2023-07-29T11:30:24;22.80;46.00
15879;DHT22;61999;51.514;14.614;2023-07-29T11:32:53;23.00;45.60
15879;DHT22;61999;51.514;14.614;2023-07-29T11:35:22;23.00;45.40
15879;DHT22;61999;51.514;14.614;2023-07-29T11:37:51;22.90;45.40
15879;DHT22;61999;51.514;14.614;2023-07-29T11:40:21;23.10;43.50
15879;DHT22;61999;51.514;14.614;2023-07-29T11:42:51;23.00;43.00
15879;DHT22;61999;51.514;14.614;2023-07-29T11:45:23;23.10;42.20
15879;DHT22;61999;51.514;14.614;2023-07-29T11:47:58;23.20;42.00
15879;DHT22;61999;51.514;14.614;2023-07-29T11:50:26;23.20;41.10
15879;DHT22;61999;51.514;14.614;2023-07-29T11:52:54;22.90;41.00
15879;DHT22;61999;51.514;14.614;2023-07-29T11:55:22;22.50;41.90
15879;DHT22;61999;51.514;14.614;2023-07-29T11:57:51;22.20;42.40
15879;DHT22;61999;51.514;14.614;2023-07-29T12:00:21;22.00;42.90
15879;DHT22;61999;51.514;14.614;2023-07-29T12:02:50;21.80;43.70
15879;DHT22;61999;51.514;14.614;2023-07-29T12:05:21;21.80;43.60
15879;DHT22;61999;51.514;14.614;2023-07-29T12:07:50;21.90;43.60
15879;DHT22;61999;51.514;14.614;2023-07-29T12:10:18;21.80;43.20
15879;DHT22;61999;51.514;14.614;2023-07-29T12:12:49;21.50;43.90
15879;DHT22;61999;51.514;14.614;2023-07-29T12:15:24;21.40;44.30
15879;DHT22;61999;51.514;14.614;2023-07-29T12:17:55;21.30;44.60
15879;DHT22;61999;51.514;14.614;2023-07-29T12:20:24;21.30;44.90
15879;DHT22;61999;51.514;14.614;2023-07-29T12:22:56;20.90;54.90
15879;DHT22;61999;51.514;14.614;2023-07-29T12:25:28;19.90;57.30
15879;DHT22;61999;51.514;14.614;2023-07-29T12:27:56;19.10;59.00
15879;DHT22;61999;51.514;14.614;2023-07-29T12:30:29;18.70;60.80
15879;DHT22;61999;51.514;14.614;2023-07-29T12:32:58;18.50;61.60
15879;DHT22;61999;51.514;14.614;2023-07-29T12:35:35;18.40;62.50
15879;DHT22;61999;51.514;14.614;2023-07-29T12:38:03;18.20;62.80
15879;DHT22;61999;51.514;14.614;2023-07-29T12:40:31;18.20;62.40
15879;DHT22;61999;51.514;14.614;2023-07-29T12:42:59;18.30;61.70
15879;DHT22;61999;51.514;14.614;2023-07-29T12:45:28;18.20;61.00
15879;DHT22;61999;51.514;14.614;2023-07-29T12:48:07;18.30;60.40
15879;DHT22;61999;51.514;14.614;2023-07-29T12:50:35;18.20;59.90
15879;DHT22;61999;51.514;14.614;2023-07-29T12:53:04;18.10;60.20
15879;DHT22;61999;51.514;14.614;2023-07-29T12:55:34;18.00;61.10
15879;DHT22;61999;51.514;14.614;2023-07-29T12:58:02;18.00;61.00
15879;DHT22;61999;51.514;14.614;2023-07-29T13:00:30;18.10;60.30
15879;DHT22;61999;51.514;14.614;2023-07-29T13:02:58;18.40;58.90
15879;DHT22;61999;51.514;14.614;2023-07-29T13:05:28;18.40;58.50
15879;DHT22;61999;51.514;14.614;2023-07-29T13:07:56;18.40;58.20
15879;DHT22;61999;51.514;14.614;2023-07-29T13:10:23;18.50;57.80
15879;DHT22;61999;51.514;14.614;2023-07-29T13:12:51;18.60;58.70
15879;DHT22;61999;51.514;14.614;2023-07-29T13:15:19;18.90;57.60
15879;DHT22;61999;51.514;14.614;2023-07-29T13:17:47;19.10;56.00
15879;DHT22;61999;51.514;14.614;2023-07-29T13:20:15;19.30;56.10
15879;DHT22;61999;51.514;14.614;2023-07-29T13:22:44;19.40;56.20
15879;DHT22;61999;51.514;14.614;2023-07-29T13:25:12;19.60;55.00
15879;DHT22;61999;51.514;14.614;2023-07-29T13:27:40;19.70;55.40
15879;DHT22;61999;51.514;14.614;2023-07-29T13:30:09;19.70;54.70
15879;DHT22;61999;51.514;14.614;2023-07-29T13:32:37;19.80;55.20
15879;DHT22;61999;51.514;14.614;2023-07-29T13:35:05;19.70;55.30
15879;DHT22;61999;51.514;14.614;2023-07-29T13:37:33;19.90;54.90
15879;DHT22;61999;51.514;14.614;2023-07-29T13:40:04;20.00;54.20
15879;DHT22;61999;51.514;14.614;2023-07-29T13:42:32;20.20;54.00
15879;DHT22;61999;51.514;14.614;2023-07-29T13:45:01;20.10;54.10
15879;DHT22;61999;51.514;14.614;2023-07-29T13:47:29;20.20;53.40
15879;DHT22;61999;51.514;14.614;2023-07-29T13:49:57;20.30;53.40
15879;DHT22;61999;51.514;14.614;2023-07-29T13:52:25;20.50;53.20
15879;DHT22;61999;51.514;14.614;2023-07-29T13:54:53;20.50;53.30
15879;DHT22;61999;51.514;14.614;2023-07-29T13:57:22;20.90;52.00
15879;DHT22;61999;51.514;14.614;2023-07-29T13:59:50;21.00;50.70
15879;DHT22;61999;51.514;14.614;2023-07-29T14:02:18;20.90;51.10
15879;DHT22;61999;51.514;14.614;2023-07-29T14:04:46;20.70;51.00
15879;DHT22;61999;51.514;14.614;2023-07-29T14:07:14;20.40;52.40
15879;DHT22;61999;51.514;14.614;2023-07-29T14:09:42;20.50;50.80
15879;DHT22;61999;51.514;14.614;2023-07-29T14:12:09;20.40;51.60
15879;DHT22;61999;51.514;14.614;2023-07-29T14:14:40;20.30;52.10
15879;DHT22;61999;51.514;14.614;2023-07-29T14:17:08;20.30;52.00
15879;DHT22;61999;51.514;14.614;2023-07-29T14:19:36;20.30;51.60
15879;DHT22;61999;51.514;14.614;2023-07-29T14:22:05;20.30;51.60
15879;DHT22;61999;51.514;14.614;2023-07-29T14:24:33;20.30;52.10
15879;DHT22;61999;51.514;14.614;2023-07-29T14:27:01;20.10;52.20
15879;DHT22;61999;51.514;14.614;2023-07-29T14:29:29;20.00;51.90
15879;DHT22;61999;51.514;14.614;2023-07-29T14:31:58;20.00;51.50
15879;DHT22;61999;51.514;14.614;2023-07-29T14:34:26;19.80;52.20
15879;DHT22;61999;51.514;14.614;2023-07-29T14:36:55;19.80;52.20
15879;DHT22;61999;51.514;14.614;2023-07-29T14:39:23;20.00;52.20
15879;DHT22;61999;51.514;14.614;2023-07-29T14:41:51;20.30;51.90
15879;DHT22;61999;51.514;14.614;2023-07-29T14:44:19;20.60;50.90
15879;DHT22;61999;51.514;14.614;2023-07-29T14:46:47;20.70;50.70
15879;DHT22;61999;51.514;14.614;2023-07-29T14:49:16;20.80;50.40
15879;DHT22;61999;51.514;14.614;2023-07-29T14:51:44;20.90;49.90
15879;DHT22;61999;51.514;14.614;2023-07-29T14:54:12;20.80;50.70
15879;DHT22;61999;51.514;14.614;2023-07-29T14:56:40;20.80;50.20
15879;DHT22;61999;51.514;14.614;2023-07-29T14:59:08;20.80;50.90
15879;DHT22;61999;51.514;14.614;2023-07-29T15:01:36;21.00;49.40
15879;DHT22;61999;51.514;14.614;2023-07-29T15:04:04;21.00;50.30
15879;DHT22;61999;51.514;14.614;2023-07-29T15:06:33;21.30;49.70
15879;DHT22;61999;51.514;14.614;2023-07-29T15:09:02;21.40;47.60
15879;DHT22;61999;51.514;14.614;2023-07-29T15:11:30;21.40;48.30
15879;DHT22;61999;51.514;14.614;2023-07-29T15:13:59;21.60;47.70
15879;DHT22;61999;51.514;14.614;2023-07-29T15:16:27;21.90;46.70
15879;DHT22;61999;51.514;14.614;2023-07-29T15:18:55;21.90;46.10
15879;DHT22;61999;51.514;14.614;2023-07-29T15:21:23;21.80;47.60
15879;DHT22;61999;51.514;14.614;2023-07-29T15:23:52;21.80;45.90
15879;DHT22;61999;51.514;14.614;2023-07-29T15:26:20;21.80;44.90
15879;DHT22;61999;51.514;14.614;2023-07-29T15:28:48;21.50;46.00
15879;DHT22;61999;51.514;14.614;2023-07-29T15:31:16;21.30;46.70